sensor_id;sensor_type;location;lat;lon;timestamp;P1;durP1;ratioP1;P2;durP2;ratioP2
3407;SDS011;1717;50.240;8.406;2023-05-23T00:01:32;47.63;;;38.37;;
3407;SDS011;1717;50.240;8.406;2023-05-23T00:04:01;48.50;;;39.00;;
3407;SDS011;1717;50.240;8.406;2023-05-23T00:06:28;49.67;;;37.93;;
3407;SDS011;1717;50.240;8.406;2023-05-23T00:08:55;53.37;;;38.50;;
3407;SDS011;1717;50.240;8.406;2023-05-23T00:11:22;48.27;;;37.00;;
3407;SDS011;1717;50.240;8.406;2023-05-23T00:13:51;50.60;;;38.10;;
3407;SDS011;1717;50.240;8.406;2023-05-23T00:16:19;52.87;;;38.13;;
3407;SDS011;1717;50.240;8.406;2023-05-23T00:18:47;45.23;;;35.90;;
3407;SDS011;1717;50.240;8.406;2023-05-23T00:21:14;48.63;;;37.57;;
3407;SDS011;1717;50.240;8.406;2023-05-23T00:23:41;46.17;;;35.50;;
3407;SDS011;1717;50.240;8.406;2023-05-23T00:26:08;47.00;;;36.87;;
3407;SDS011;1717;50.240;8.406;2023-05-23T00:28:35;44.33;;;35.70;;
3407;SDS011;1717;50.240;8.406;2023-05-23T00:31:02;43.77;;;35.47;;
3407;SDS011;1717;50.240;8.406;2023-05-23T00:33:31;45.40;;;34.70;;
3407;SDS011;1717;50.240;8.406;2023-05-23T00:35:58;43.30;;;36.20;;
3407;SDS011;1717;50.240;8.406;2023-05-23T00:38:25;41.83;;;34.90;;
3407;SDS011;1717;50.240;8.406;2023-05-23T00:40:52;38.47;;;31.90;;
3407;SDS011;1717;50.240;8.406;2023-05-23T00:43:19;37.07;;;31.43;;
3407;SDS011;1717;50.240;8.406;2023-05-23T00:45:47;36.83;;;31.80;;
3407;SDS011;1717;50.240;8.406;2023-05-23T00:48:14;37.10;;;30.80;;
3407;SDS011;1717;50.240;8.406;2023-05-23T00:50:42;32.93;;;29.40;;
3407;SDS011;1717;50.240;8.406;2023-05-23T00:53:09;34.97;;;30.60;;
3407;SDS011;1717;50.240;8.406;2023-05-23T00:55:37;35.30;;;29.73;;
3407;SDS011;1717;50.240;8.406;2023-05-23T00:58:04;36.83;;;30.27;;
3407;SDS011;1717;50.240;8.406;2023-05-23T01:00:31;35.87;;;30.90;;
3407;SDS011;1717;50.240;8.406;2023-05-23T01:02:59;30.83;;;27.53;;
3407;SDS011;1717;50.240;8.406;2023-05-23T01:05:27;32.90;;;28.87;;
3407;SDS011;1717;50.240;8.406;2023-05-23T01:07:55;30.67;;;26.97;;
3407;SDS011;1717;50.240;8.406;2023-05-23T01:10:26;33.03;;;26.90;;
3407;SDS011;1717;50.240;8.406;2023-05-23T01:12:57;31.93;;;28.00;;
3407;SDS011;1717;50.240;8.406;2023-05-23T01:15:37;33.13;;;27.40;;
3407;SDS011;1717;50.240;8.406;2023-05-23T01:18:09;31.30;;;27.90;;
3407;SDS011;1717;50.240;8.406;2023-05-23T01:20:40;32.83;;;27.80;;
3407;SDS011;1717;50.240;8.406;2023-05-23T01:23:27;31.27;;;27.97;;
3407;SDS011;1717;50.240;8.406;2023-05-23T01:26:17;34.80;;;27.87;;
3407;SDS011;1717;50.240;8.406;2023-05-23T01:28:58;30.87;;;26.77;;
3407;SDS011;1717;50.240;8.406;2023-05-23T01:31:34;33.17;;;29.37;;
3407;SDS011;1717;50.240;8.406;2023-05-23T01:34:02;33.27;;;29.20;;
3407;SDS011;1717;50.240;8.406;2023-05-23T01:36:32;31.50;;;28.07;;
3407;SDS011;1717;50.240;8.406;2023-05-23T01:39:00;33.67;;;30.07;;
3407;SDS011;1717;50.240;8.406;2023-05-23T01:41:27;35.83;;;30.23;;
3407;SDS011;1717;50.240;8.406;2023-05-23T01:43:54;32.17;;;28.67;;
3407;SDS011;1717;50.240;8.406;2023-05-23T01:46:22;37.27;;;33.30;;
3407;SDS011;1717;50.240;8.406;2023-05-23T01:48:50;33.17;;;28.90;;
3407;SDS011;1717;50.240;8.406;2023-05-23T01:51:18;35.70;;;29.00;;
3407;SDS011;1717;50.240;8.406;2023-05-23T01:53:46;33.37;;;29.90;;
3407;SDS011;1717;50.240;8.406;2023-05-23T01:56:13;33.80;;;30.20;;
3407;SDS011;1717;50.240;8.406;2023-05-23T01:58:40;33.00;;;27.90;;
3407;SDS011;1717;50.240;8.406;2023-05-23T02:01:07;33.53;;;29.93;;
3407;SDS011;1717;50.240;8.406;2023-05-23T02:03:36;31.77;;;28.37;;
3407;SDS011;1717;50.240;8.406;2023-05-23T02:06:03;32.23;;;28.10;;
3407;SDS011;1717;50.240;8.406;2023-05-23T02:08:30;32.83;;;27.50;;
3407;SDS011;1717;50.240;8.406;2023-05-23T02:10:57;33.63;;;28.83;;
3407;SDS011;1717;50.240;8.406;2023-05-23T02:13:24;32.53;;;26.70;;
3407;SDS011;1717;50.240;8.406;2023-05-23T02:15:50;31.70;;;26.97;;
3407;SDS011;1717;50.240;8.406;2023-05-23T02:18:17;32.17;;;27.03;;
3407;SDS011;1717;50.240;8.406;2023-05-23T02:20:45;27.37;;;24.47;;
3407;SDS011;1717;50.240;8.406;2023-05-23T02:23:12;28.67;;;25.30;;
3407;SDS011;1717;50.240;8.406;2023-05-23T02:25:39;25.97;;;23.17;;
3407;SDS011;1717;50.240;8.406;2023-05-23T02:28:06;28.30;;;25.40;;
3407;SDS011;1717;50.240;8.406;2023-05-23T02:30:32;36.10;;;27.03;;
3407;SDS011;1717;50.240;8.406;2023-05-23T02:33:03;33.17;;;24.30;;
3407;SDS011;1717;50.240;8.406;2023-05-23T02:35:30;26.47;;;23.57;;
3407;SDS011;1717;50.240;8.406;2023-05-23T02:37:58;27.00;;;24.10;;
3407;SDS011;1717;50.240;8.406;2023-05-23T02:40:25;26.50;;;23.00;;
3407;SDS011;1717;50.240;8.406;2023-05-23T02:42:52;26.67;;;23.87;;
3407;SDS011;1717;50.240;8.406;2023-05-23T02:45:21;26.73;;;23.00;;
3407;SDS011;1717;50.240;8.406;2023-05-23T02:47:48;25.57;;;22.77;;
3407;SDS011;1717;50.240;8.406;2023-05-23T02:50:14;29.70;;;25.50;;
3407;SDS011;1717;50.240;8.406;2023-05-23T02:52:41;25.80;;;22.33;;
3407;SDS011;1717;50.240;8.406;2023-05-23T02:55:10;26.27;;;22.30;;
3407;SDS011;1717;50.240;8.406;2023-05-23T02:57:37;28.73;;;21.80;;
3407;SDS011;1717;50.240;8.406;2023-05-23T03:00:04;26.33;;;20.20;;
3407;SDS011;1717;50.240;8.406;2023-05-23T03:02:33;24.27;;;20.80;;
3407;SDS011;1717;50.240;8.406;2023-05-23T03:05:00;23.00;;;20.50;;
3407;SDS011;1717;50.240;8.406;2023-05-23T03:07:28;23.50;;;20.97;;
3407;SDS011;1717;50.240;8.406;2023-05-23T03:09:58;24.00;;;20.70;;
3407;SDS011;1717;50.240;8.406;2023-05-23T03:12:26;23.33;;;19.67;;
3407;SDS011;1717;50.240;8.406;2023-05-23T03:14:53;22.27;;;19.53;;
3407;SDS011;1717;50.240;8.406;2023-05-23T03:17:20;26.23;;;19.80;;
3407;SDS011;1717;50.240;8.406;2023-05-23T03:19:47;20.40;;;18.20;;
3407;SDS011;1717;50.240;8.406;2023-05-23T03:22:13;19.67;;;17.57;;
3407;SDS011;1717;50.240;8.406;2023-05-23T03:24:40;21.20;;;18.90;;
3407;SDS011;1717;50.240;8.406;2023-05-23T03:27:07;21.00;;;18.80;;
3407;SDS011;1717;50.240;8.406;2023-05-23T03:29:35;21.00;;;18.70;;
3407;SDS011;1717;50.240;8.406;2023-05-23T03:32:02;25.73;;;20.93;;
3407;SDS011;1717;50.240;8.406;2023-05-23T03:34:29;21.60;;;19.20;;
3407;SDS011;1717;50.240;8.406;2023-05-23T03:36:57;23.40;;;19.43;;
3407;SDS011;1717;50.240;8.406;2023-05-23T03:39:23;24.27;;;21.37;;
3407;SDS011;1717;50.240;8.406;2023-05-23T03:41:50;22.90;;;20.23;;
3407;SDS011;1717;50.240;8.406;2023-05-23T03:44:17;25.00;;;21.27;;
3407;SDS011;1717;50.240;8.406;2023-05-23T03:46:45;28.17;;;22.10;;
3407;SDS011;1717;50.240;8.406;2023-05-23T03:49:12;27.10;;;23.50;;
3407;SDS011;1717;50.240;8.406;2023-05-23T03:51:39;28.10;;;22.40;;
3407;SDS011;1717;50.240;8.406;2023-05-23T03:54:06;28.10;;;24.70;;
3407;SDS011;1717;50.240;8.406;2023-05-23T03:56:33;34.60;;;23.40;;
3407;SDS011;1717;50.240;8.406;2023-05-23T03:58:59;26.03;;;23.17;;
3407;SDS011;1717;50.240;8.406;2023-05-23T04:01:26;25.20;;;21.57;;
3407;SDS011;1717;50.240;8.406;2023-05-23T04:03:55;33.00;;;23.20;;
3407;SDS011;1717;50.240;8.406;2023-05-23T04:06:21;24.53;;;21.83;;
3407;SDS011;1717;50.240;8.406;2023-05-23T04:08:48;30.10;;;22.37;;
3407;SDS011;1717;50.240;8.406;2023-05-23T04:11:15;26.27;;;22.10;;
3407;SDS011;1717;50.240;8.406;2023-05-23T04:13:42;24.00;;;21.23;;
3407;SDS011;1717;50.240;8.406;2023-05-23T04:16:11;26.33;;;22.50;;
3407;SDS011;1717;50.240;8.406;2023-05-23T04:18:37;26.53;;;22.30;;
3407;SDS011;1717;50.240;8.406;2023-05-23T04:21:06;26.97;;;22.73;;
3407;SDS011;1717;50.240;8.406;2023-05-23T04:23:33;24.03;;;21.43;;
3407;SDS011;1717;50.240;8.406;2023-05-23T04:26:00;28.70;;;20.87;;
3407;SDS011;1717;50.240;8.406;2023-05-23T04:28:28;24.93;;;20.80;;
3407;SDS011;1717;50.240;8.406;2023-05-23T04:30:55;23.37;;;20.63;;
3407;SDS011;1717;50.240;8.406;2023-05-23T04:33:22;22.97;;;20.57;;
3407;SDS011;1717;50.240;8.406;2023-05-23T04:35:49;21.53;;;19.23;;
3407;SDS011;1717;50.240;8.406;2023-05-23T04:38:17;23.10;;;20.70;;
3407;SDS011;1717;50.240;8.406;2023-05-23T04:40:46;23.97;;;19.43;;
3407;SDS011;1717;50.240;8.406;2023-05-23T04:43:13;24.60;;;20.80;;
3407;SDS011;1717;50.240;8.406;2023-05-23T04:45:40;22.37;;;20.07;;
3407;SDS011;1717;50.240;8.406;2023-05-23T04:48:08;24.47;;;21.77;;
3407;SDS011;1717;50.240;8.406;2023-05-23T04:50:37;24.93;;;22.30;;
3407;SDS011;1717;50.240;8.406;2023-05-23T04:53:04;23.80;;;21.03;;
3407;SDS011;1717;50.240;8.406;2023-05-23T04:55:32;28.20;;;22.90;;
3407;SDS011;1717;50.240;8.406;2023-05-23T04:58:00;29.47;;;23.03;;
3407;SDS011;1717;50.240;8.406;2023-05-23T05:00:27;25.60;;;22.00;;
3407;SDS011;1717;50.240;8.406;2023-05-23T05:02:54;24.47;;;21.87;;
3407;SDS011;1717;50.240;8.406;2023-05-23T05:05:21;23.93;;;21.37;;
3407;SDS011;1717;50.240;8.406;2023-05-23T05:07:47;24.50;;;21.97;;
3407;SDS011;1717;50.240;8.406;2023-05-23T05:10:14;23.53;;;21.03;;
3407;SDS011;1717;50.240;8.406;2023-05-23T05:12:43;22.93;;;20.47;;
3407;SDS011;1717;50.240;8.406;2023-05-23T05:15:13;35.20;;;20.60;;
3407;SDS011;1717;50.240;8.406;2023-05-23T05:17:41;21.43;;;19.13;;
3407;SDS011;1717;50.240;8.406;2023-05-23T05:20:08;21.97;;;19.67;;
3407;SDS011;1717;50.240;8.406;2023-05-23T05:22:36;20.50;;;18.43;;
3407;SDS011;1717;50.240;8.406;2023-05-23T05:25:04;20.67;;;18.47;;
3407;SDS011;1717;50.240;8.406;2023-05-23T05:27:32;21.10;;;17.50;;
3407;SDS011;1717;50.240;8.406;2023-05-23T05:30:00;21.33;;;18.80;;
3407;SDS011;1717;50.240;8.406;2023-05-23T05:32:29;19.70;;;17.63;;
3407;SDS011;1717;50.240;8.406;2023-05-23T05:34:57;18.90;;;16.90;;
3407;SDS011;1717;50.240;8.406;2023-05-23T05:37:24;18.83;;;16.87;;
3407;SDS011;1717;50.240;8.406;2023-05-23T05:39:51;19.80;;;17.80;;
3407;SDS011;1717;50.240;8.406;2023-05-23T05:42:18;18.70;;;16.67;;
3407;SDS011;1717;50.240;8.406;2023-05-23T05:44:45;18.07;;;16.20;;
3407;SDS011;1717;50.240;8.406;2023-05-23T05:47:13;17.43;;;15.60;;
3407;SDS011;1717;50.240;8.406;2023-05-23T05:49:41;18.30;;;16.40;;
3407;SDS011;1717;50.240;8.406;2023-05-23T05:52:08;19.70;;;14.80;;
3407;SDS011;1717;50.240;8.406;2023-05-23T05:54:34;16.70;;;15.00;;
3407;SDS011;1717;50.240;8.406;2023-05-23T05:57:01;18.60;;;15.60;;
3407;SDS011;1717;50.240;8.406;2023-05-23T05:59:28;15.70;;;14.10;;
3407;SDS011;1717;50.240;8.406;2023-05-23T06:01:55;17.13;;;15.00;;
3407;SDS011;1717;50.240;8.406;2023-05-23T06:04:23;16.33;;;14.00;;
3407;SDS011;1717;50.240;8.406;2023-05-23T06:06:50;15.83;;;14.27;;
3407;SDS011;1717;50.240;8.406;2023-05-23T06:09:17;13.87;;;12.43;;
3407;SDS011;1717;50.240;8.406;2023-05-23T06:11:43;15.47;;;13.13;;
3407;SDS011;1717;50.240;8.406;2023-05-23T06:14:10;16.43;;;13.70;;
3407;SDS011;1717;50.240;8.406;2023-05-23T06:16:37;14.13;;;12.73;;
3407;SDS011;1717;50.240;8.406;2023-05-23T06:19:04;13.10;;;11.70;;
3407;SDS011;1717;50.240;8.406;2023-05-23T06:21:32;13.20;;;11.90;;
3407;SDS011;1717;50.240;8.406;2023-05-23T06:24:00;14.33;;;12.90;;
3407;SDS011;1717;50.240;8.406;2023-05-23T06:26:27;14.50;;;12.83;;
3407;SDS011;1717;50.240;8.406;2023-05-23T06:28:53;14.60;;;13.07;;
3407;SDS011;1717;50.240;8.406;2023-05-23T06:31:20;15.70;;;14.07;;
3407;SDS011;1717;50.240;8.406;2023-05-23T06:33:47;17.43;;;15.70;;
3407;SDS011;1717;50.240;8.406;2023-05-23T06:36:15;16.57;;;14.80;;
3407;SDS011;1717;50.240;8.406;2023-05-23T06:38:43;17.00;;;15.27;;
3407;SDS011;1717;50.240;8.406;2023-05-23T06:41:10;17.77;;;16.03;;
3407;SDS011;1717;50.240;8.406;2023-05-23T06:43:36;18.23;;;16.33;;
3407;SDS011;1717;50.240;8.406;2023-05-23T06:46:03;19.73;;;17.70;;
3407;SDS011;1717;50.240;8.406;2023-05-23T06:48:30;17.63;;;15.83;;
3407;SDS011;1717;50.240;8.406;2023-05-23T06:50:57;17.87;;;15.97;;
3407;SDS011;1717;50.240;8.406;2023-05-23T06:53:24;18.37;;;16.37;;
3407;SDS011;1717;50.240;8.406;2023-05-23T06:55:52;17.90;;;15.93;;
3407;SDS011;1717;50.240;8.406;2023-05-23T06:58:20;18.97;;;17.07;;
3407;SDS011;1717;50.240;8.406;2023-05-23T07:00:49;17.20;;;15.47;;
3407;SDS011;1717;50.240;8.406;2023-05-23T07:03:16;18.00;;;16.27;;
3407;SDS011;1717;50.240;8.406;2023-05-23T07:05:42;19.77;;;17.60;;
3407;SDS011;1717;50.240;8.406;2023-05-23T07:08:09;17.83;;;16.03;;
3407;SDS011;1717;50.240;8.406;2023-05-23T07:10:37;18.80;;;15.80;;
3407;SDS011;1717;50.240;8.406;2023-05-23T07:13:06;18.80;;;16.67;;
3407;SDS011;1717;50.240;8.406;2023-05-23T07:15:33;16.93;;;15.30;;
3407;SDS011;1717;50.240;8.406;2023-05-23T07:18:00;17.87;;;16.07;;
3407;SDS011;1717;50.240;8.406;2023-05-23T07:20:28;14.97;;;13.47;;
3407;SDS011;1717;50.240;8.406;2023-05-23T07:22:55;14.33;;;13.00;;
3407;SDS011;1717;50.240;8.406;2023-05-23T07:25:22;13.53;;;12.23;;
3407;SDS011;1717;50.240;8.406;2023-05-23T07:27:49;16.43;;;12.50;;
3407;SDS011;1717;50.240;8.406;2023-05-23T07:30:19;13.70;;;12.40;;
3407;SDS011;1717;50.240;8.406;2023-05-23T07:32:47;13.83;;;11.70;;
3407;SDS011;1717;50.240;8.406;2023-05-23T07:35:14;11.93;;;10.73;;
3407;SDS011;1717;50.240;8.406;2023-05-23T07:37:41;11.90;;;10.80;;
3407;SDS011;1717;50.240;8.406;2023-05-23T07:40:08;12.63;;;11.17;;
3407;SDS011;1717;50.240;8.406;2023-05-23T07:42:35;12.07;;;10.97;;
3407;SDS011;1717;50.240;8.406;2023-05-23T07:45:03;12.00;;;10.90;;
3407;SDS011;1717;50.240;8.406;2023-05-23T07:47:31;12.23;;;10.80;;
3407;SDS011;1717;50.240;8.406;2023-05-23T07:49:58;11.07;;;10.00;;
3407;SDS011;1717;50.240;8.406;2023-05-23T07:52:26;10.60;;;9.70;;
3407;SDS011;1717;50.240;8.406;2023-05-23T07:54:54;12.40;;;11.20;;
3407;SDS011;1717;50.240;8.406;2023-05-23T07:57:20;11.00;;;10.00;;
3407;SDS011;1717;50.240;8.406;2023-05-23T07:59:48;10.93;;;9.93;;
3407;SDS011;1717;50.240;8.406;2023-05-23T08:02:16;11.33;;;10.30;;
3407;SDS011;1717;50.240;8.406;2023-05-23T08:04:44;11.20;;;10.30;;
3407;SDS011;1717;50.240;8.406;2023-05-23T08:07:12;10.23;;;9.33;;
3407;SDS011;1717;50.240;8.406;2023-05-23T08:09:39;12.17;;;10.87;;
3407;SDS011;1717;50.240;8.406;2023-05-23T08:12:06;10.10;;;9.20;;
3407;SDS011;1717;50.240;8.406;2023-05-23T08:14:33;11.30;;;10.30;;
3407;SDS011;1717;50.240;8.406;2023-05-23T08:17:00;10.97;;;9.80;;
3407;SDS011;1717;50.240;8.406;2023-05-23T08:19:27;10.67;;;9.57;;
3407;SDS011;1717;50.240;8.406;2023-05-23T08:21:56;10.20;;;9.20;;
3407;SDS011;1717;50.240;8.406;2023-05-23T08:24:22;10.43;;;9.10;;
3407;SDS011;1717;50.240;8.406;2023-05-23T08:26:49;9.67;;;8.77;;
3407;SDS011;1717;50.240;8.406;2023-05-23T08:29:16;10.03;;;9.13;;
3407;SDS011;1717;50.240;8.406;2023-05-23T08:31:43;9.40;;;8.50;;
3407;SDS011;1717;50.240;8.406;2023-05-23T08:34:10;9.13;;;8.37;;
3407;SDS011;1717;50.240;8.406;2023-05-23T08:36:38;10.00;;;8.67;;
3407;SDS011;1717;50.240;8.406;2023-05-23T08:39:08;9.60;;;8.63;;
3407;SDS011;1717;50.240;8.406;2023-05-23T08:41:35;8.57;;;7.87;;
3407;SDS011;1717;50.240;8.406;2023-05-23T08:44:02;9.23;;;8.33;;
3407;SDS011;1717;50.240;8.406;2023-05-23T08:46:29;9.73;;;8.83;;
3407;SDS011;1717;50.240;8.406;2023-05-23T08:48:58;9.27;;;8.47;;
3407;SDS011;1717;50.240;8.406;2023-05-23T08:51:26;9.27;;;8.47;;
3407;SDS011;1717;50.240;8.406;2023-05-23T08:53:53;10.07;;;8.73;;
3407;SDS011;1717;50.240;8.406;2023-05-23T08:56:22;9.00;;;8.10;;
3407;SDS011;1717;50.240;8.406;2023-05-23T08:58:49;9.40;;;8.50;;
3407;SDS011;1717;50.240;8.406;2023-05-23T09:01:17;9.40;;;8.50;;
3407;SDS011;1717;50.240;8.406;2023-05-23T09:03:45;9.20;;;8.30;;
3407;SDS011;1717;50.240;8.406;2023-05-23T09:06:14;7.67;;;7.07;;
3407;SDS011;1717;50.240;8.406;2023-05-23T09:08:43;9.03;;;8.23;;
3407;SDS011;1717;50.240;8.406;2023-05-23T09:11:10;12.37;;;8.13;;
3407;SDS011;1717;50.240;8.406;2023-05-23T09:13:40;8.63;;;7.83;;
3407;SDS011;1717;50.240;8.406;2023-05-23T09:16:08;8.30;;;7.70;;
3407;SDS011;1717;50.240;8.406;2023-05-23T09:18:37;8.20;;;7.50;;
3407;SDS011;1717;50.240;8.406;2023-05-23T09:21:06;8.60;;;7.90;;
3407;SDS011;1717;50.240;8.406;2023-05-23T09:23:34;7.77;;;7.17;;
3407;SDS011;1717;50.240;8.406;2023-05-23T09:26:02;7.00;;;6.40;;
3407;SDS011;1717;50.240;8.406;2023-05-23T09:28:30;7.83;;;7.13;;
3407;SDS011;1717;50.240;8.406;2023-05-23T09:30:59;7.70;;;6.90;;
3407;SDS011;1717;50.240;8.406;2023-05-23T09:33:37;7.47;;;6.87;;
3407;SDS011;1717;50.240;8.406;2023-05-23T09:36:05;7.33;;;6.63;;
3407;SDS011;1717;50.240;8.406;2023-05-23T09:38:33;7.13;;;6.43;;
3407;SDS011;1717;50.240;8.406;2023-05-23T09:41:03;7.70;;;7.10;;
3407;SDS011;1717;50.240;8.406;2023-05-23T09:43:30;9.77;;;7.23;;
3407;SDS011;1717;50.240;8.406;2023-05-23T09:46:03;8.00;;;7.27;;
3407;SDS011;1717;50.240;8.406;2023-05-23T09:48:33;9.00;;;6.93;;
3407;SDS011;1717;50.240;8.406;2023-05-23T09:51:02;7.67;;;6.90;;
3407;SDS011;1717;50.240;8.406;2023-05-23T09:53:30;9.50;;;7.23;;
3407;SDS011;1717;50.240;8.406;2023-05-23T09:55:57;7.27;;;6.60;;
3407;SDS011;1717;50.240;8.406;2023-05-23T09:58:26;8.10;;;6.40;;
3407;SDS011;1717;50.240;8.406;2023-05-23T10:00:54;7.20;;;6.60;;
3407;SDS011;1717;50.240;8.406;2023-05-23T10:03:28;7.17;;;6.47;;
3407;SDS011;1717;50.240;8.406;2023-05-23T10:05:59;7.40;;;6.70;;
3407;SDS011;1717;50.240;8.406;2023-05-23T10:08:33;9.10;;;8.17;;
3407;SDS011;1717;50.240;8.406;2023-05-23T10:14:31;8.17;;;7.07;;
3407;SDS011;1717;50.240;8.406;2023-05-23T10:17:05;11.13;;;7.80;;
3407;SDS011;1717;50.240;8.406;2023-05-23T10:19:39;8.20;;;7.40;;
3407;SDS011;1717;50.240;8.406;2023-05-23T10:22:09;8.53;;;7.63;;
3407;SDS011;1717;50.240;8.406;2023-05-23T10:24:37;8.00;;;7.20;;
3407;SDS011;1717;50.240;8.406;2023-05-23T10:27:05;8.17;;;7.30;;
3407;SDS011;1717;50.240;8.406;2023-05-23T10:29:32;8.10;;;7.30;;
3407;SDS011;1717;50.240;8.406;2023-05-23T10:32:01;7.73;;;5.97;;
3407;SDS011;1717;50.240;8.406;2023-05-23T10:34:31;7.03;;;6.07;;
3407;SDS011;1717;50.240;8.406;2023-05-23T10:37:17;6.23;;;5.73;;
3407;SDS011;1717;50.240;8.406;2023-05-23T10:39:50;7.63;;;6.67;;
3407;SDS011;1717;50.240;8.406;2023-05-23T10:42:25;8.77;;;7.97;;
3407;SDS011;1717;50.240;8.406;2023-05-23T10:47:40;7.77;;;6.97;;
3407;SDS011;1717;50.240;8.406;2023-05-23T10:50:10;9.10;;;8.27;;
3407;SDS011;1717;50.240;8.406;2023-05-23T10:52:39;9.20;;;7.80;;
3407;SDS011;1717;50.240;8.406;2023-05-23T10:55:11;10.70;;;9.07;;
3407;SDS011;1717;50.240;8.406;2023-05-23T10:57:39;11.00;;;7.87;;
3407;SDS011;1717;50.240;8.406;2023-05-23T11:00:11;8.77;;;7.87;;
3407;SDS011;1717;50.240;8.406;2023-05-23T11:02:45;8.13;;;7.33;;
3407;SDS011;1717;50.240;8.406;2023-05-23T11:05:18;8.13;;;7.20;;
3407;SDS011;1717;50.240;8.406;2023-05-23T11:07:47;6.97;;;6.37;;
3407;SDS011;1717;50.240;8.406;2023-05-23T11:10:34;7.50;;;6.80;;
3407;SDS011;1717;50.240;8.406;2023-05-23T11:13:17;6.80;;;6.20;;
3407;SDS011;1717;50.240;8.406;2023-05-23T11:15:45;6.40;;;5.80;;
3407;SDS011;1717;50.240;8.406;2023-05-23T11:18:18;6.23;;;5.60;;
3407;SDS011;1717;50.240;8.406;2023-05-23T11:20:46;6.00;;;5.10;;
3407;SDS011;1717;50.240;8.406;2023-05-23T11:23:16;4.60;;;4.20;;
3407;SDS011;1717;50.240;8.406;2023-05-23T11:25:43;5.80;;;4.50;;
3407;SDS011;1717;50.240;8.406;2023-05-23T11:28:13;6.10;;;4.87;;
3407;SDS011;1717;50.240;8.406;2023-05-23T11:30:40;4.80;;;3.80;;
3407;SDS011;1717;50.240;8.406;2023-05-23T11:33:07;4.27;;;3.87;;
3407;SDS011;1717;50.240;8.406;2023-05-23T11:35:38;5.67;;;3.97;;
3407;SDS011;1717;50.240;8.406;2023-05-23T11:38:05;4.83;;;3.53;;
3407;SDS011;1717;50.240;8.406;2023-05-23T11:40:34;4.93;;;3.93;;
3407;SDS011;1717;50.240;8.406;2023-05-23T11:43:02;3.33;;;3.13;;
3407;SDS011;1717;50.240;8.406;2023-05-23T11:45:30;4.27;;;3.87;;
3407;SDS011;1717;50.240;8.406;2023-05-23T11:48:03;3.70;;;3.40;;
3407;SDS011;1717;50.240;8.406;2023-05-23T11:50:31;4.63;;;4.23;;
3407;SDS011;1717;50.240;8.406;2023-05-23T11:52:58;4.80;;;4.40;;
3407;SDS011;1717;50.240;8.406;2023-05-23T11:55:25;3.83;;;3.50;;
3407;SDS011;1717;50.240;8.406;2023-05-23T11:57:54;4.40;;;4.00;;
3407;SDS011;1717;50.240;8.406;2023-05-23T12:00:22;4.33;;;4.03;;
3407;SDS011;1717;50.240;8.406;2023-05-23T12:02:49;4.80;;;4.40;;
3407;SDS011;1717;50.240;8.406;2023-05-23T12:05:16;4.30;;;3.93;;
3407;SDS011;1717;50.240;8.406;2023-05-23T12:07:43;4.93;;;4.53;;
3407;SDS011;1717;50.240;8.406;2023-05-23T12:10:11;4.40;;;4.00;;
3407;SDS011;1717;50.240;8.406;2023-05-23T12:12:40;5.03;;;4.60;;
3407;SDS011;1717;50.240;8.406;2023-05-23T12:15:09;4.77;;;4.23;;
3407;SDS011;1717;50.240;8.406;2023-05-23T12:17:37;5.43;;;4.70;;
3407;SDS011;1717;50.240;8.406;2023-05-23T12:20:04;4.43;;;4.13;;
3407;SDS011;1717;50.240;8.406;2023-05-23T12:22:33;5.03;;;4.53;;
3407;SDS011;1717;50.240;8.406;2023-05-23T12:25:00;4.50;;;4.10;;
3407;SDS011;1717;50.240;8.406;2023-05-23T12:27:29;4.37;;;4.00;;
3407;SDS011;1717;50.240;8.406;2023-05-23T12:30:04;5.30;;;4.90;;
3407;SDS011;1717;50.240;8.406;2023-05-23T12:32:36;5.20;;;4.63;;
3407;SDS011;1717;50.240;8.406;2023-05-23T12:35:05;5.70;;;5.20;;
3407;SDS011;1717;50.240;8.406;2023-05-23T12:37:33;7.00;;;5.03;;
3407;SDS011;1717;50.240;8.406;2023-05-23T12:40:08;5.47;;;4.57;;
3407;SDS011;1717;50.240;8.406;2023-05-23T12:45:18;6.10;;;5.60;;
3407;SDS011;1717;50.240;8.406;2023-05-23T12:47:47;6.00;;;5.40;;
3407;SDS011;1717;50.240;8.406;2023-05-23T12:50:14;6.03;;;5.43;;
3407;SDS011;1717;50.240;8.406;2023-05-23T12:52:41;5.80;;;5.20;;
3407;SDS011;1717;50.240;8.406;2023-05-23T12:55:09;6.33;;;5.73;;
3407;SDS011;1717;50.240;8.406;2023-05-23T12:57:36;6.10;;;5.60;;
3407;SDS011;1717;50.240;8.406;2023-05-23T13:00:03;5.67;;;5.17;;
3407;SDS011;1717;50.240;8.406;2023-05-23T13:02:31;5.50;;;5.00;;
3407;SDS011;1717;50.240;8.406;2023-05-23T13:04:59;5.70;;;5.10;;
3407;SDS011;1717;50.240;8.406;2023-05-23T13:07:26;6.60;;;5.23;;
3407;SDS011;1717;50.240;8.406;2023-05-23T13:09:53;6.57;;;5.63;;
3407;SDS011;1717;50.240;8.406;2023-05-23T13:12:20;7.17;;;6.47;;
3407;SDS011;1717;50.240;8.406;2023-05-23T13:14:47;6.47;;;5.87;;
3407;SDS011;1717;50.240;8.406;2023-05-23T13:17:15;6.90;;;6.20;;
3407;SDS011;1717;50.240;8.406;2023-05-23T13:19:42;9.30;;;7.00;;
3407;SDS011;1717;50.240;8.406;2023-05-23T13:22:11;6.50;;;5.90;;
3407;SDS011;1717;50.240;8.406;2023-05-23T13:24:38;9.80;;;5.70;;
3407;SDS011;1717;50.240;8.406;2023-05-23T13:27:07;6.40;;;5.80;;
3407;SDS011;1717;50.240;8.406;2023-05-23T13:29:34;7.80;;;6.93;;
3407;SDS011;1717;50.240;8.406;2023-05-23T13:32:01;6.90;;;6.30;;
3407;SDS011;1717;50.240;8.406;2023-05-23T13:34:28;9.30;;;7.30;;
3407;SDS011;1717;50.240;8.406;2023-05-23T13:36:55;7.60;;;6.17;;
3407;SDS011;1717;50.240;8.406;2023-05-23T13:39:23;8.77;;;7.40;;
3407;SDS011;1717;50.240;8.406;2023-05-23T13:41:50;7.20;;;6.53;;
3407;SDS011;1717;50.240;8.406;2023-05-23T13:44:17;9.40;;;7.47;;
3407;SDS011;1717;50.240;8.406;2023-05-23T13:46:44;7.67;;;6.87;;
3407;SDS011;1717;50.240;8.406;2023-05-23T13:49:11;7.20;;;6.57;;
3407;SDS011;1717;50.240;8.406;2023-05-23T13:51:38;9.20;;;6.90;;
3407;SDS011;1717;50.240;8.406;2023-05-23T13:54:05;10.90;;;7.03;;
3407;SDS011;1717;50.240;8.406;2023-05-23T13:56:34;8.70;;;7.80;;
3407;SDS011;1717;50.240;8.406;2023-05-23T13:59:03;9.20;;;7.90;;
3407;SDS011;1717;50.240;8.406;2023-05-23T14:01:30;10.50;;;8.20;;
3407;SDS011;1717;50.240;8.406;2023-05-23T14:03:57;8.90;;;8.00;;
3407;SDS011;1717;50.240;8.406;2023-05-23T14:06:24;11.70;;;9.10;;
3407;SDS011;1717;50.240;8.406;2023-05-23T14:08:51;13.20;;;8.90;;
3407;SDS011;1717;50.240;8.406;2023-05-23T14:11:18;12.40;;;8.40;;
3407;SDS011;1717;50.240;8.406;2023-05-23T14:13:46;9.97;;;8.10;;
3407;SDS011;1717;50.240;8.406;2023-05-23T14:16:13;11.70;;;9.03;;
3407;SDS011;1717;50.240;8.406;2023-05-23T14:18:40;12.90;;;9.90;;
3407;SDS011;1717;50.240;8.406;2023-05-23T14:21:07;12.00;;;10.17;;
3407;SDS011;1717;50.240;8.406;2023-05-23T14:23:34;9.83;;;8.90;;
3407;SDS011;1717;50.240;8.406;2023-05-23T14:26:01;10.43;;;9.43;;
